Time;durP1;ratioP1;P1;durP2;ratioP2;P2;SDS_P1;SDS_P2;PMS_P1;PMS_P2;Temp;Humidity;BMP_temperature;BMP_pressure;BME280_temperature;BME280_humidity;BME280_pressure;Samples;Min_cycle;Max_cycle;Signal;HPM_P1;HPM_P2
2022/06/26 00:02:00;;;;;;;197.57;101.88;;;25.70;99.90;;;;;;5054391;28;20032;-67
2022/06/26 00:04:26;;;;;;;444.83;221.75;;;25.70;99.90;;;;;;5053825;28;20017;-67
2022/06/26 00:06:55;;;;;;;102.88;59.80;;;25.70;99.90;;;;;;5053831;28;20017;-66
2022/06/26 00:09:22;;;;;;;75.50;52.85;;;25.70;99.90;;;;;;5053925;28;20021;-66
2022/06/26 00:11:49;;;;;;;45.08;35.40;;;25.70;99.90;;;;;;5053284;28;20033;-65
2022/06/26 00:14:16;;;;;;;28.60;23.52;;;25.70;99.90;;;;;;5053894;28;20029;-65
2022/06/26 00:16:43;;;;;;;32.65;23.25;;;25.60;99.90;;;;;;5053652;28;20025;-66
2022/06/26 00:19:09;;;;;;;76.40;56.08;;;25.60;99.90;;;;;;5053503;28;20477;-65
2022/06/26 00:21:36;;;;;;;72.03;63.42;;;25.70;99.90;;;;;;5053676;28;20025;-65
2022/06/26 00:24:03;;;;;;;81.03;70.05;;;25.70;99.90;;;;;;5054037;28;20017;-65
2022/06/26 00:26:29;;;;;;;93.20;73.68;;;25.80;99.90;;;;;;5051260;28;20024;-65
2022/06/26 00:28:56;;;;;;;112.90;100.63;;;25.80;99.90;;;;;;5057827;28;20032;-65
2022/06/26 00:31:23;;;;;;;152.73;136.48;;;25.90;99.90;;;;;;5052564;28;20032;-66
2022/06/26 00:33:49;;;;;;;102.15;83.97;;;25.90;99.90;;;;;;5051744;28;20053;-66
2022/06/26 00:36:16;;;;;;;83.95;63.92;;;25.90;99.90;;;;;;5052366;28;20060;-65
2022/06/26 00:38:43;;;;;;;70.13;53.45;;;26.00;99.90;;;;;;5048784;28;20470;-66
2022/06/26 00:41:09;;;;;;;50.13;35.00;;;26.00;99.90;;;;;;5049397;28;20056;-66
2022/06/26 00:43:36;;;;;;;57.35;36.38;;;25.90;99.90;;;;;;5043395;28;20040;-67
2022/06/26 00:46:05;;;;;;;49.63;36.22;;;26.00;99.90;;;;;;5052978;28;20029;-67
2022/06/26 00:48:32;;;;;;;60.15;39.47;;;26.00;99.90;;;;;;5051948;28;20044;-67
2022/06/26 00:50:59;;;;;;;49.95;35.72;;;26.10;99.90;;;;;;5052910;28;20033;-69
2022/06/26 00:53:26;;;;;;;49.60;34.05;;;26.10;99.90;;;;;;5053055;28;20085;-67
2022/06/26 00:55:53;;;;;;;49.38;35.05;;;26.10;99.90;;;;;;5052757;28;20044;-65
2022/06/26 00:58:19;;;;;;;46.72;32.25;;;26.10;99.90;;;;;;5047969;28;20411;-65
2022/06/26 01:00:46;;;;;;;54.90;32.60;;;26.20;99.90;;;;;;5052793;28;20095;-66
2022/06/26 01:03:13;;;;;;;36.45;27.48;;;26.20;99.90;;;;;;5052656;28;20476;-65
2022/06/26 01:05:40;;;;;;;38.40;24.30;;;26.20;99.90;;;;;;5052601;28;20029;-65
2022/06/26 01:08:08;;;;;;;34.50;20.67;;;26.20;99.90;;;;;;5052543;28;20035;-66
2022/06/26 01:10:35;;;;;;;35.15;21.13;;;26.30;99.90;;;;;;5052695;28;20017;-66
2022/06/26 01:13:02;;;;;;;31.85;21.13;;;26.20;99.90;;;;;;5052162;28;20029;-66
2022/06/26 01:15:29;;;;;;;147.40;101.75;;;26.20;99.90;;;;;;5051809;28;20056;-67
2022/06/26 01:17:56;;;;;;;112.95;76.72;;;26.30;99.90;;;;;;5052593;28;20029;-66
2022/06/26 01:20:23;;;;;;;241.02;162.60;;;26.40;99.90;;;;;;5052153;28;20031;-66
2022/06/26 01:22:59;;;;;;;134.98;90.45;;;26.40;99.90;;;;;;5052584;28;20068;-67
2022/06/26 01:25:37;;;;;;;83.97;56.15;;;26.50;99.90;;;;;;5052680;28;20028;-67
2022/06/26 01:28:04;;;;;;;71.22;45.65;;;26.50;99.90;;;;;;5050416;28;20103;-66
2022/06/26 01:30:31;;;;;;;46.13;30.73;;;26.50;99.90;;;;;;5051542;28;20108;-66
2022/06/26 01:32:57;;;;;;;50.83;32.15;;;26.50;99.90;;;;;;5049760;28;20522;-67
2022/06/26 01:35:24;;;;;;;47.72;29.15;;;26.60;99.90;;;;;;5052080;28;20021;-66
2022/06/26 01:37:51;;;;;;;41.95;26.85;;;26.60;99.90;;;;;;5051949;28;20474;-66
2022/06/26 01:40:18;;;;;;;41.70;27.00;;;26.70;99.90;;;;;;5052200;28;20509;-66
2022/06/26 01:42:44;;;;;;;52.13;30.58;;;26.70;99.90;;;;;;5052407;28;20032;-66
2022/06/26 01:45:11;;;;;;;58.78;33.63;;;26.80;99.90;;;;;;5051465;28;20029;-69
2022/06/26 01:47:38;;;;;;;56.00;34.40;;;26.90;99.90;;;;;;5052614;28;20016;-69
2022/06/26 01:50:05;;;;;;;50.70;31.92;;;27.00;99.90;;;;;;5051893;28;20052;-69
2022/06/26 01:52:31;;;;;;;52.05;33.42;;;27.10;99.90;;;;;;5054934;28;20092;-70
2022/06/26 01:54:58;;;;;;;59.10;34.72;;;27.20;99.90;;;;;;5056183;28;20025;-68
2022/06/26 01:57:25;;;;;;;56.17;33.58;;;27.20;99.90;;;;;;5056030;28;20039;-68
2022/06/26 01:59:51;;;;;;;115.75;77.60;;;27.30;99.90;;;;;;5055721;28;20033;-70
2022/06/26 02:02:18;;;;;;;57.13;35.38;;;27.40;99.90;;;;;;5055993;28;20113;-67
2022/06/26 02:04:44;;;;;;;43.22;27.48;;;27.50;99.90;;;;;;5055026;28;20024;-68
2022/06/26 02:07:11;;;;;;;43.33;27.73;;;27.50;99.90;;;;;;5056106;28;20477;-67
2022/06/26 02:15:11;;;;;;;50.70;27.65;;;27.70;99.90;;;;;;5055173;28;20033;-67
2022/06/26 02:17:37;;;;;;;46.83;26.73;;;27.70;99.90;;;;;;5047045;28;20029;-66
2022/06/26 02:20:06;;;;;;;56.22;32.53;;;27.80;99.90;;;;;;5055853;28;20036;-67
2022/06/26 02:22:33;;;;;;;58.75;33.17;;;27.80;99.90;;;;;;5055602;28;20032;-67
2022/06/26 02:25:00;;;;;;;65.57;35.58;;;27.90;99.90;;;;;;5055345;28;20049;-69
2022/06/26 02:27:27;;;;;;;64.18;36.60;;;28.10;99.90;;;;;;5055578;28;20409;-69
2022/06/26 02:29:54;;;;;;;48.50;27.83;;;28.10;99.90;;;;;;5055666;28;20021;-67
2022/06/26 02:32:20;;;;;;;36.22;22.52;;;28.20;99.90;;;;;;5055944;28;20047;-67
2022/06/26 02:34:47;;;;;;;35.47;18.23;;;28.20;99.90;;;;;;5055877;28;20105;-69
2022/06/26 02:37:14;;;;;;;36.50;16.13;;;28.30;99.90;;;;;;5055745;28;20517;-68
2022/06/26 02:39:41;;;;;;;29.20;15.13;;;28.30;99.90;;;;;;5055021;28;20040;-70
2022/06/26 02:42:08;;;;;;;20.52;12.82;;;28.40;99.90;;;;;;5056027;28;20020;-67
2022/06/26 02:44:34;;;;;;;20.30;10.88;;;28.40;99.90;;;;;;5055337;28;20100;-66
2022/06/26 02:47:01;;;;;;;22.30;12.68;;;28.40;99.90;;;;;;5055601;28;20063;-66
2022/06/26 02:49:28;;;;;;;22.27;12.40;;;28.50;99.90;;;;;;5055278;28;20397;-67
2022/06/26 02:51:55;;;;;;;19.65;11.90;;;28.40;99.90;;;;;;5055052;28;20024;-67
2022/06/26 02:54:21;;;;;;;19.73;10.30;;;28.40;99.90;;;;;;5055628;28;20116;-65
2022/06/26 02:56:48;;;;;;;14.82;9.95;;;28.40;99.90;;;;;;5055004;28;20039;-67
2022/06/26 02:59:15;;;;;;;17.83;8.35;;;28.50;99.90;;;;;;5054810;28;20120;-65
2022/06/26 03:01:42;;;;;;;9.95;6.63;;;28.50;99.90;;;;;;5055400;28;20458;-66
2022/06/26 03:04:08;;;;;;;15.52;7.47;;;28.40;99.90;;;;;;5055054;28;20032;-65
2022/06/26 03:06:35;;;;;;;58.67;44.25;;;28.40;99.90;;;;;;5055005;28;20025;-65
2022/06/26 03:09:02;;;;;;;27.50;18.35;;;28.50;99.90;;;;;;5054058;28;20039;-66
2022/06/26 03:11:28;;;;;;;51.35;36.78;;;28.50;99.90;;;;;;5051903;28;20021;-66
2022/06/26 03:13:56;;;;;;;21.27;14.38;;;28.60;99.90;;;;;;5054593;28;20029;-67
2022/06/26 03:16:23;;;;;;;15.60;10.40;;;28.60;99.90;;;;;;5055003;28;20054;-66
2022/06/26 03:18:49;;;;;;;13.13;7.43;;;28.70;99.90;;;;;;5055040;28;20040;-67
2022/06/26 03:21:16;;;;;;;12.55;6.28;;;28.80;99.90;;;;;;5054568;28;20036;-67
2022/06/26 03:26:33;;;;;;;15.35;8.80;;;28.80;99.90;;;;;;5054817;28;20025;-67
2022/06/26 03:29:01;;;;;;;9.88;6.65;;;28.90;99.90;;;;;;5054587;28;20111;-68
2022/06/26 03:31:28;;;;;;;15.48;9.88;;;29.00;99.90;;;;;;5053879;28;20029;-65
2022/06/26 03:33:57;;;;;;;28.33;14.13;;;29.00;99.90;;;;;;5054352;28;20045;-66
2022/06/26 03:36:24;;;;;;;23.63;12.55;;;29.00;99.90;;;;;;5052522;28;20642;-67
2022/06/26 03:38:52;;;;;;;16.48;7.75;;;29.00;99.90;;;;;;5052455;28;20037;-68
2022/06/26 03:41:19;;;;;;;14.88;8.38;;;29.10;99.90;;;;;;5052718;28;20029;-67
2022/06/26 03:43:45;;;;;;;25.67;13.77;;;29.20;99.90;;;;;;5053195;28;20132;-67
2022/06/26 03:46:12;;;;;;;11.00;6.85;;;29.30;99.90;;;;;;5053077;28;20027;-66
2022/06/26 03:48:40;;;;;;;12.85;6.85;;;29.30;99.90;;;;;;5053289;28;20072;-66
2022/06/26 03:51:08;;;;;;;17.80;8.65;;;29.30;99.90;;;;;;5054050;28;20027;-66
2022/06/26 03:53:35;;;;;;;11.77;6.10;;;29.40;99.90;;;;;;5053033;28;20037;-66
2022/06/26 03:56:03;;;;;;;9.38;4.75;;;29.30;99.90;;;;;;5053814;28;20450;-67
2022/06/26 03:58:30;;;;;;;13.88;7.07;;;29.30;99.90;;;;;;5054230;28;20060;-67
2022/06/26 04:00:57;;;;;;;14.27;7.63;;;29.40;99.90;;;;;;5054210;28;20017;-68
2022/06/26 04:03:24;;;;;;;12.77;7.15;;;29.30;99.90;;;;;;5054001;28;20021;-67
2022/06/26 04:05:51;;;;;;;14.90;6.53;;;29.40;99.90;;;;;;5054064;28;20547;-67
2022/06/26 04:08:19;;;;;;;13.70;7.38;;;29.30;99.90;;;;;;5053683;28;20151;-67
2022/06/26 04:10:46;;;;;;;14.43;5.60;;;29.40;99.90;;;;;;5053048;28;20029;-67
2022/06/26 04:13:13;;;;;;;11.77;6.63;;;29.40;99.90;;;;;;5053725;28;20017;-67
2022/06/26 04:15:41;;;;;;;10.32;6.40;;;29.50;99.90;;;;;;5053355;28;20028;-68
2022/06/26 04:18:11;;;;;;;13.20;6.40;;;29.50;99.90;;;;;;5053384;28;20028;-67
2022/06/26 04:20:37;;;;;;;13.70;7.30;;;29.50;99.90;;;;;;5053501;28;20428;-67
2022/06/26 04:23:08;;;;;;;9.82;5.68;;;29.60;99.90;;;;;;5053659;28;20104;-67
2022/06/26 04:25:36;;;;;;;13.77;7.00;;;29.60;99.90;;;;;;5053402;28;20017;-67
2022/06/26 04:28:05;;;;;;;17.13;8.90;;;29.60;99.90;;;;;;5052598;28;20021;-67
2022/06/26 04:30:32;;;;;;;10.65;6.10;;;29.60;99.90;;;;;;5052871;28;20029;-67
2022/06/26 04:32:58;;;;;;;9.50;5.60;;;29.70;99.90;;;;;;5053167;28;20049;-68
2022/06/26 04:35:25;;;;;;;12.98;5.68;;;29.80;99.90;;;;;;5053156;28;20466;-67
2022/06/26 04:37:52;;;;;;;10.60;6.00;;;29.80;99.90;;;;;;5053591;28;20055;-67
2022/06/26 04:40:19;;;;;;;10.95;5.90;;;29.90;99.90;;;;;;5053097;28;20113;-67
2022/06/26 04:42:45;;;;;;;13.48;9.05;;;30.00;99.90;;;;;;5053175;28;20096;-67
2022/06/26 04:45:12;;;;;;;16.25;7.80;;;30.00;99.90;;;;;;5053262;28;20021;-67
2022/06/26 04:47:39;;;;;;;35.33;23.88;;;30.00;99.90;;;;;;5053312;28;20070;-68
2022/06/26 04:50:07;;;;;;;26.17;17.40;;;30.00;99.90;;;;;;5053442;28;20036;-67
2022/06/26 04:52:33;;;;;;;13.05;9.25;;;30.00;99.90;;;;;;5053048;28;20033;-67
2022/06/26 04:55:00;;;;;;;8.77;6.88;;;30.20;99.90;;;;;;5053200;28;20025;-67
2022/06/26 04:57:27;;;;;;;16.67;8.40;;;30.30;99.90;;;;;;5053161;28;20025;-68
2022/06/26 04:59:54;;;;;;;12.85;8.20;;;30.30;99.90;;;;;;5053020;28;20029;-67
2022/06/26 05:02:21;;;;;;;12.73;6.20;;;30.30;99.90;;;;;;5052895;28;20024;-67
2022/06/26 05:04:47;;;;;;;9.95;4.72;;;30.20;99.90;;;;;;5053376;28;20028;-68
2022/06/26 05:07:14;;;;;;;11.43;5.57;;;30.20;99.90;;;;;;5053019;28;20488;-67
2022/06/26 05:09:41;;;;;;;12.23;6.90;;;30.30;99.90;;;;;;5052915;28;20159;-67
2022/06/26 05:12:08;;;;;;;9.68;7.03;;;30.30;99.90;;;;;;5052832;28;20470;-67
2022/06/26 05:14:34;;;;;;;14.95;7.93;;;30.40;99.90;;;;;;5052880;28;20413;-67
2022/06/26 05:17:01;;;;;;;11.27;7.07;;;30.40;99.90;;;;;;5052765;28;20057;-67
2022/06/26 05:19:28;;;;;;;14.40;9.05;;;30.40;99.90;;;;;;5053059;28;20025;-67
2022/06/26 05:21:54;;;;;;;40.38;21.98;;;30.30;99.90;;;;;;5053001;28;20013;-68
2022/06/26 05:24:21;;;;;;;458.48;336.65;;;30.40;99.90;;;;;;5052746;28;20017;-67
2022/06/26 05:26:49;;;;;;;254.75;189.63;;;30.50;99.90;;;;;;5054135;28;20035;-67
2022/06/26 05:29:16;;;;;;;190.30;147.35;;;30.50;99.90;;;;;;5056994;28;20517;-67
2022/06/26 05:31:43;;;;;;;388.17;304.55;;;30.50;99.90;;;;;;5056765;28;20078;-67
2022/06/26 05:34:10;;;;;;;105.10;80.15;;;30.50;99.90;;;;;;5056788;28;20072;-68
2022/06/26 05:36:36;;;;;;;340.60;233.35;;;30.50;99.90;;;;;;5056992;28;20017;-67
2022/06/26 05:39:03;;;;;;;414.88;311.15;;;30.50;99.90;;;;;;5056473;28;20037;-67
2022/06/26 05:41:30;;;;;;;204.13;143.07;;;30.50;99.90;;;;;;5056692;28;20104;-68
2022/06/26 05:43:57;;;;;;;774.20;633.65;;;30.60;99.90;;;;;;5056844;28;20386;-68
2022/06/26 05:46:24;;;;;;;616.63;513.05;;;30.60;99.90;;;;;;5056374;28;20028;-68
2022/06/26 05:48:51;;;;;;;490.80;413.83;;;30.60;99.90;;;;;;5056472;28;20116;-67
2022/06/26 05:51:18;;;;;;;551.25;445.10;;;30.60;99.90;;;;;;5056480;28;20486;-68
2022/06/26 05:53:44;;;;;;;666.67;534.47;;;30.60;99.90;;;;;;5056309;28;20139;-67
2022/06/26 05:56:11;;;;;;;305.55;233.65;;;30.60;99.90;;;;;;5056353;28;20107;-68
2022/06/26 05:58:38;;;;;;;402.73;320.25;;;30.60;99.90;;;;;;5056484;28;20024;-68
2022/06/26 06:01:05;;;;;;;101.85;75.25;;;30.50;99.90;;;;;;5056052;28;20021;-67
2022/06/26 06:03:32;;;;;;;299.58;216.73;;;30.50;99.90;;;;;;5056210;28;20405;-67
2022/06/26 06:05:59;;;;;;;594.40;449.05;;;30.50;99.90;;;;;;5056441;28;20401;-67
2022/06/26 06:08:26;;;;;;;583.58;444.08;;;30.50;99.90;;;;;;5056102;28;20108;-67
2022/06/26 06:10:53;;;;;;;656.13;440.42;;;30.50;99.90;;;;;;5056040;28;20025;-67
2022/06/26 06:13:20;;;;;;;517.45;350.27;;;30.50;99.90;;;;;;5056090;28;20024;-68
2022/06/26 06:15:46;;;;;;;452.52;287.23;;;30.50;99.90;;;;;;5056038;28;20021;-67
2022/06/26 06:18:13;;;;;;;165.52;90.07;;;30.50;99.90;;;;;;5056161;28;20043;-68
2022/06/26 06:20:40;;;;;;;589.83;331.58;;;30.50;99.90;;;;;;5055859;28;20029;-68
2022/06/26 06:23:07;;;;;;;433.30;227.73;;;30.50;99.90;;;;;;5055822;28;20100;-68
2022/06/26 06:25:34;;;;;;;307.60;160.07;;;30.50;99.90;;;;;;5055692;28;20535;-68
2022/06/26 06:28:01;;;;;;;179.50;98.68;;;30.60;99.90;;;;;;5055757;28;20033;-67
2022/06/26 06:30:28;;;;;;;441.55;243.52;;;30.70;99.90;;;;;;5055897;28;20021;-68
2022/06/26 06:32:54;;;;;;;57.25;29.90;;;30.70;99.90;;;;;;5055279;28;20037;-67
2022/06/26 06:35:22;;;;;;;66.43;31.60;;;30.80;99.90;;;;;;5055661;28;20044;-67
2022/06/26 06:37:49;;;;;;;303.40;137.50;;;30.90;99.90;;;;;;5055079;28;20489;-67
2022/06/26 06:40:16;;;;;;;238.30;110.75;;;30.90;99.90;;;;;;5055157;28;20044;-67
2022/06/26 06:42:44;;;;;;;364.55;154.60;;;30.90;99.90;;;;;;5055380;28;20097;-68
2022/06/26 06:45:11;;;;;;;84.25;41.97;;;30.90;99.90;;;;;;5055577;28;20029;-67
2022/06/26 06:47:38;;;;;;;106.63;44.63;;;30.80;99.90;;;;;;5055504;28;20095;-67
2022/06/26 06:50:06;;;;;;;27.95;13.52;;;30.80;99.90;;;;;;5055340;28;20108;-68
2022/06/26 06:52:32;;;;;;;42.13;17.80;;;30.80;99.90;;;;;;5055315;28;20029;-68
2022/06/26 06:54:59;;;;;;;154.80;53.13;;;30.90;99.90;;;;;;5055255;28;20432;-67
2022/06/26 06:57:26;;;;;;;253.32;104.05;;;31.00;99.90;;;;;;5055257;28;20025;-68
2022/06/26 06:59:52;;;;;;;883.65;460.88;;;31.00;99.90;;;;;;5055213;28;20113;-68
2022/06/26 07:02:19;;;;;;;433.80;218.05;;;31.10;99.90;;;;;;5055024;28;20025;-68
2022/06/26 07:04:46;;;;;;;386.80;201.55;;;31.00;99.90;;;;;;5055584;28;20075;-68
2022/06/26 07:07:12;;;;;;;203.10;104.68;;;31.00;99.90;;;;;;5055231;28;20025;-67
2022/06/26 07:09:48;;;;;;;251.93;141.15;;;31.00;99.90;;;;;;5055025;28;20059;-68
2022/06/26 07:12:15;;;;;;;177.43;100.30;;;31.00;99.90;;;;;;5055061;28;20028;-68
2022/06/26 07:14:41;;;;;;;66.22;36.83;;;31.00;99.90;;;;;;5055114;28;20099;-67
2022/06/26 07:17:08;;;;;;;17.80;10.52;;;31.00;99.90;;;;;;5054871;28;20100;-67
2022/06/26 07:19:35;;;;;;;12.10;6.72;;;31.00;99.90;;;;;;5054809;28;20025;-67
2022/06/26 07:22:02;;;;;;;15.25;8.90;;;31.00;99.90;;;;;;5054890;28;20017;-68
2022/06/26 07:24:29;;;;;;;15.90;8.38;;;31.10;99.90;;;;;;5054491;28;20026;-67
2022/06/26 07:26:55;;;;;;;17.52;6.30;;;31.10;99.90;;;;;;5054774;28;20017;-68
2022/06/26 07:29:22;;;;;;;29.80;16.73;;;31.10;99.90;;;;;;5054759;28;20049;-68
2022/06/26 07:31:49;;;;;;;45.22;24.55;;;31.20;99.90;;;;;;5054460;28;20040;-67
2022/06/26 07:34:17;;;;;;;35.10;21.67;;;31.20;99.90;;;;;;5054564;28;20045;-67
2022/06/26 07:36:45;;;;;;;9.75;7.30;;;31.20;99.90;;;;;;5054647;28;20033;-68
2022/06/26 07:39:14;;;;;;;20.00;10.07;;;31.10;99.90;;;;;;5054231;28;20037;-68
2022/06/26 07:41:42;;;;;;;26.30;15.48;;;31.10;99.90;;;;;;5054490;28;20389;-68
2022/06/26 07:44:09;;;;;;;22.45;12.63;;;31.10;99.90;;;;;;5054424;28;20108;-68
2022/06/26 07:46:37;;;;;;;19.63;10.07;;;31.10;99.90;;;;;;5054387;28;20018;-67
2022/06/26 07:49:04;;;;;;;40.40;21.40;;;31.00;99.90;;;;;;5053215;28;20398;-67
2022/06/26 07:51:31;;;;;;;17.70;8.30;;;31.10;99.90;;;;;;5054369;28;20067;-68
2022/06/26 07:53:58;;;;;;;26.00;12.35;;;31.00;99.90;;;;;;5054137;28;20021;-67
2022/06/26 07:56:25;;;;;;;23.27;11.95;;;31.10;99.90;;;;;;5054182;28;20070;-68
2022/06/26 07:58:56;;;;;;;21.70;11.77;;;31.20;99.90;;;;;;5054028;28;20064;-68
2022/06/26 08:01:23;;;;;;;16.45;8.40;;;31.20;99.90;;;;;;5054105;28;20734;-68
2022/06/26 08:03:49;;;;;;;9.60;5.72;;;31.30;99.90;;;;;;5054058;28;20501;-68
2022/06/26 08:06:17;;;;;;;8.25;5.10;;;31.30;99.90;;;;;;5053929;28;20025;-68
2022/06/26 08:08:43;;;;;;;14.50;5.93;;;31.40;99.90;;;;;;5053842;28;20033;-68
2022/06/26 08:11:10;;;;;;;7.43;4.60;;;31.50;99.90;;;;;;5053810;28;20046;-67
2022/06/26 08:13:37;;;;;;;9.43;4.55;;;31.50;99.90;;;;;;5054001;28;20031;-68
2022/06/26 08:16:04;;;;;;;10.95;3.85;;;31.50;99.90;;;;;;5053584;28;20029;-68
2022/06/26 08:18:30;;;;;;;8.93;3.72;;;31.50;99.90;;;;;;5053765;28;20053;-68
2022/06/26 08:20:57;;;;;;;8.75;3.17;;;31.50;99.90;;;;;;5053734;28;20028;-68
2022/06/26 08:23:23;;;;;;;6.05;3.67;;;31.40;99.90;;;;;;5053450;28;20482;-68
2022/06/26 08:25:50;;;;;;;5.60;3.10;;;31.50;99.90;;;;;;5053898;28;20469;-68
2022/06/26 08:28:17;;;;;;;7.60;3.70;;;31.50;99.90;;;;;;5053493;28;20025;-68
2022/06/26 08:30:43;;;;;;;10.50;3.83;;;31.60;99.90;;;;;;5053462;28;20391;-68
2022/06/26 08:33:10;;;;;;;8.82;5.22;;;31.70;99.90;;;;;;5053350;28;20537;-68
2022/06/26 08:35:37;;;;;;;6.93;3.83;;;31.80;99.90;;;;;;5053558;28;20095;-68
2022/06/26 08:38:03;;;;;;;5.93;3.45;;;31.90;99.90;;;;;;5053280;28;20438;-67
2022/06/26 08:40:31;;;;;;;10.52;4.15;;;31.80;99.90;;;;;;5053517;28;20052;-67
2022/06/26 08:43:00;;;;;;;7.22;3.47;;;31.90;99.90;;;;;;5053666;28;20425;-68
2022/06/26 08:45:29;;;;;;;12.70;3.85;;;31.90;99.90;;;;;;5053275;28;20021;-68
2022/06/26 08:47:59;;;;;;;7.95;4.30;;;31.70;99.90;;;;;;5053367;28;20422;-68
2022/06/26 08:50:27;;;;;;;7.07;3.65;;;31.70;99.90;;;;;;5053208;28;20025;-68
2022/06/26 08:52:53;;;;;;;7.53;4.05;;;31.80;99.90;;;;;;5053023;28;20025;-67
2022/06/26 08:55:23;;;;;;;10.02;4.88;;;31.90;99.90;;;;;;5053077;28;20398;-67
2022/06/26 08:57:50;;;;;;;10.95;5.50;;;31.90;99.90;;;;;;5053159;28;20032;-67
2022/06/26 09:00:18;;;;;;;12.55;6.95;;;32.00;99.90;;;;;;5052640;28;20430;-67
2022/06/26 09:02:47;;;;;;;14.93;6.65;;;32.00;99.90;;;;;;5053065;28;20040;-67
2022/06/26 09:05:14;;;;;;;6.32;3.80;;;31.90;99.50;;;;;;5053052;28;20053;-66
2022/06/26 09:07:47;;;;;;;14.15;6.93;;;31.90;99.20;;;;;;5052997;28;20053;-67
2022/06/26 09:10:17;;;;;;;26.05;12.50;;;31.90;98.80;;;;;;5052819;28;20029;-67
2022/06/26 09:12:54;;;;;;;27.33;11.73;;;31.80;98.40;;;;;;5052786;28;20032;-67
2022/06/26 09:15:22;;;;;;;13.80;6.43;;;31.70;98.70;;;;;;5052908;28;20478;-67
2022/06/26 09:18:01;;;;;;;14.20;6.05;;;31.70;99.70;;;;;;5053050;28;20025;-67
2022/06/26 09:20:30;;;;;;;26.10;18.45;;;31.70;99.30;;;;;;5052790;28;20032;-66
2022/06/26 09:22:59;;;;;;;10.45;6.20;;;31.70;99.50;;;;;;5052857;28;20029;-66
2022/06/26 09:25:36;;;;;;;10.85;5.72;;;31.70;99.90;;;;;;5052754;28;20099;-68
2022/06/26 09:28:06;;;;;;;16.67;6.50;;;31.70;99.90;;;;;;5052828;28;20029;-69
2022/06/26 09:30:33;;;;;;;19.08;9.10;;;31.70;99.90;;;;;;5052882;28;20044;-67
2022/06/26 09:33:02;;;;;;;15.35;8.00;;;31.70;99.90;;;;;;5052641;28;20053;-66
2022/06/26 09:35:28;;;;;;;12.90;6.70;;;31.60;99.90;;;;;;5052632;28;20051;-66
2022/06/26 09:37:59;;;;;;;26.50;13.40;;;31.60;99.90;;;;;;5052522;28;20033;-68
2022/06/26 09:40:27;;;;;;;18.35;9.40;;;31.60;99.90;;;;;;5052597;28;20033;-66
2022/06/26 09:42:54;;;;;;;17.08;6.63;;;31.60;99.90;;;;;;5052598;28;20100;-65
2022/06/26 09:45:21;;;;;;;10.80;6.47;;;31.50;99.90;;;;;;5052400;28;20028;-65
2022/06/26 09:47:48;;;;;;;10.43;7.00;;;31.50;99.90;;;;;;5052837;28;20500;-65
2022/06/26 09:50:15;;;;;;;12.15;7.15;;;31.50;99.90;;;;;;5052639;28;20067;-65
2022/06/26 09:52:44;;;;;;;14.82;8.63;;;31.40;99.90;;;;;;5052542;28;20024;-65
2022/06/26 09:55:10;;;;;;;14.02;8.10;;;31.40;99.90;;;;;;5052430;28;20032;-65
2022/06/26 09:57:38;;;;;;;10.85;6.10;;;31.40;99.90;;;;;;5052754;28;20025;-65
2022/06/26 10:00:06;;;;;;;11.05;6.30;;;31.40;99.90;;;;;;5052113;28;20513;-64
2022/06/26 10:08:17;;;;;;;20.73;14.85;;;31.30;99.90;;;;;;5052716;28;20029;-66
2022/06/26 10:10:45;;;;;;;24.70;13.40;;;31.30;99.80;;;;;;5052269;28;20025;-64
2022/06/26 10:13:12;;;;;;;30.70;19.15;;;31.30;99.40;;;;;;5054235;28;20040;-65
2022/06/26 10:15:55;;;;;;;28.05;14.50;;;31.20;99.20;;;;;;5056311;28;20048;-65
2022/06/26 10:18:22;;;;;;;34.90;18.92;;;31.20;99.30;;;;;;5056018;28;20444;-65
2022/06/26 10:20:49;;;;;;;35.53;19.30;;;31.20;99.90;;;;;;5056114;28;20033;-66
2022/06/26 10:23:37;;;;;;;31.25;19.70;;;31.20;99.90;;;;;;5055584;28;20055;-68
2022/06/26 10:26:23;;;;;;;110.68;74.00;;;31.10;99.90;;;;;;5056764;28;20017;-73
2022/06/26 10:29:03;;;;;;;51.25;33.85;;;31.00;99.90;;;;;;5054107;28;20043;-70
2022/06/26 10:31:31;;;;;;;33.88;18.67;;;31.00;99.90;;;;;;5055938;28;20079;-71
2022/06/26 10:34:10;;;;;;;32.00;22.92;;;30.90;99.90;;;;;;5055933;28;20044;-72
2022/06/26 10:36:37;;;;;;;27.65;16.95;;;30.70;99.90;;;;;;5057290;28;20053;-73
2022/06/26 10:39:05;;;;;;;27.17;15.50;;;30.60;99.90;;;;;;5055420;28;20119;-72
2022/06/26 10:44:44;;;;;;;39.25;23.73;;;30.40;99.90;;;;;;5055946;28;20032;-73
2022/06/26 10:47:14;;;;;;;24.05;17.10;;;30.30;99.90;;;;;;5055806;28;20082;-68
2022/06/26 10:50:01;;;;;;;22.05;12.35;;;30.30;99.90;;;;;;5055566;28;20464;-68
2022/06/26 10:52:31;;;;;;;63.65;40.40;;;30.20;99.90;;;;;;5055420;28;20120;-67
2022/06/26 10:54:59;;;;;;;60.95;38.40;;;30.10;99.90;;;;;;5055357;28;20462;-66
2022/06/26 10:57:38;;;;;;;51.38;27.90;;;30.10;99.90;;;;;;5055412;28;20040;-66
2022/06/26 11:00:08;;;;;;;43.13;27.58;;;30.10;99.90;;;;;;5055527;28;20033;-66
2022/06/26 11:02:39;;;;;;;35.97;22.58;;;30.00;99.90;;;;;;5055418;28;20021;-67
2022/06/26 11:05:08;;;;;;;32.70;20.42;;;30.00;99.90;;;;;;5055071;28;20027;-67
2022/06/26 11:07:49;;;;;;;39.30;25.08;;;30.00;99.90;;;;;;5055219;28;20017;-66
2022/06/26 11:10:19;;;;;;;45.87;31.93;;;30.00;99.90;;;;;;5055184;28;20029;-66
2022/06/26 11:12:48;;;;;;;35.47;22.27;;;29.90;99.90;;;;;;5054958;28;20789;-65
2022/06/26 11:15:35;;;;;;;60.70;42.35;;;29.90;99.90;;;;;;5053659;28;20482;-67
2022/06/26 11:18:06;;;;;;;53.05;34.85;;;29.90;99.90;;;;;;5053686;28;20029;-66
2022/06/26 11:20:47;;;;;;;44.38;31.20;;;29.70;99.90;;;;;;5054158;28;20060;-69
2022/06/26 11:23:20;;;;;;;42.30;23.20;;;29.80;99.90;;;;;;5054748;28;20029;-69
2022/06/26 11:25:49;;;;;;;36.13;20.30;;;29.70;99.90;;;;;;5054916;28;20021;-73
2022/06/26 11:28:17;;;;;;;27.40;16.30;;;29.70;99.90;;;;;;5055296;28;20013;-65
2022/06/26 11:30:45;;;;;;;32.28;17.38;;;29.70;99.90;;;;;;5054992;28;20075;-66
2022/06/26 11:33:12;;;;;;;34.63;19.38;;;29.70;99.90;;;;;;5055133;28;20498;-66
2022/06/26 11:35:40;;;;;;;33.80;19.38;;;29.60;99.90;;;;;;5055169;28;20029;-67
2022/06/26 11:38:13;;;;;;;30.85;20.23;;;29.60;99.90;;;;;;5054186;28;20021;-67
2022/06/26 11:40:41;;;;;;;36.05;21.45;;;29.60;99.90;;;;;;5053726;28;20029;-67
2022/06/26 11:43:09;;;;;;;42.67;23.77;;;29.50;99.90;;;;;;5054001;28;20109;-67
2022/06/26 11:45:37;;;;;;;40.40;19.65;;;29.50;99.90;;;;;;5054423;28;20093;-67
2022/06/26 11:48:09;;;;;;;29.58;15.00;;;29.50;99.90;;;;;;5053713;28;20024;-69
2022/06/26 11:50:37;;;;;;;69.30;61.35;;;29.50;99.90;;;;;;5054303;28;20366;-67
2022/06/26 11:53:04;;;;;;;27.75;21.25;;;29.40;99.90;;;;;;5054363;28;20055;-67
2022/06/26 11:55:33;;;;;;;30.05;16.20;;;29.40;99.90;;;;;;5053858;28;20032;-67
2022/06/26 11:58:03;;;;;;;29.65;18.42;;;29.40;99.90;;;;;;5053877;28;20029;-68
2022/06/26 12:00:30;;;;;;;40.53;18.85;;;29.30;99.90;;;;;;5053983;28;20029;-67
2022/06/26 12:02:57;;;;;;;33.00;18.73;;;29.30;99.90;;;;;;5054094;28;20048;-67
2022/06/26 12:05:27;;;;;;;33.45;20.35;;;29.30;99.90;;;;;;5054004;28;20025;-67
2022/06/26 12:07:55;;;;;;;29.42;18.65;;;29.30;99.90;;;;;;5053973;28;20039;-67
2022/06/26 12:10:33;;;;;;;35.03;18.92;;;29.30;99.90;;;;;;5053898;28;20036;-67
2022/06/26 12:13:01;;;;;;;29.05;18.92;;;29.20;99.90;;;;;;5053682;28;20060;-67
2022/06/26 12:15:31;;;;;;;36.00;20.65;;;29.30;99.90;;;;;;5053607;28;20035;-67
2022/06/26 12:18:00;;;;;;;36.95;21.33;;;29.30;99.90;;;;;;5018497;28;20029;-67
2022/06/26 12:20:33;;;;;;;32.47;19.15;;;29.30;99.90;;;;;;5053534;28;20029;-67
2022/06/26 12:23:03;;;;;;;33.33;18.80;;;29.20;99.90;;;;;;5053559;28;20041;-67
2022/06/26 12:25:32;;;;;;;34.20;19.83;;;29.20;99.90;;;;;;5053583;28;20104;-67
2022/06/26 12:28:00;;;;;;;40.72;21.10;;;29.30;99.90;;;;;;5053891;28;20496;-67
2022/06/26 12:30:29;;;;;;;32.33;18.02;;;29.30;99.90;;;;;;5053684;28;20032;-67
2022/06/26 12:32:58;;;;;;;35.03;17.08;;;29.30;99.90;;;;;;5052618;28;20040;-69
2022/06/26 12:35:26;;;;;;;35.80;18.88;;;29.40;99.90;;;;;;5053024;28;20476;-69
2022/06/26 12:37:54;;;;;;;31.45;16.13;;;29.30;99.90;;;;;;5053394;28;20104;-69
2022/06/26 12:40:21;;;;;;;32.17;17.83;;;29.30;99.90;;;;;;5052780;28;20025;-68
2022/06/26 12:42:48;;;;;;;33.30;17.45;;;29.30;99.90;;;;;;5052140;28;20014;-69
2022/06/26 12:45:15;;;;;;;28.60;17.85;;;29.30;99.90;;;;;;5051982;28;20056;-67
2022/06/26 12:47:42;;;;;;;34.47;19.60;;;29.30;99.90;;;;;;5052451;28;20029;-68
2022/06/26 12:50:10;;;;;;;42.25;21.95;;;29.30;99.90;;;;;;5053353;28;20441;-67